createdAt,value
2018-01-08T00:00:02.278Z,24.90
2018-01-08T00:02:28.901Z,28.48
2018-01-08T00:04:55.915Z,24.67
2018-01-08T00:07:22.501Z,29.25
2018-01-08T00:09:49.505Z,27.80
2018-01-08T00:12:17.507Z,25.12
2018-01-08T00:14:44.692Z,26.08
2018-01-08T00:17:11.720Z,26.05
2018-01-08T00:19:38.881Z,27.27
2018-01-08T00:22:06.248Z,29.23
2018-01-08T00:24:32.969Z,29.27
2018-01-08T00:26:59.546Z,26.85
2018-01-08T00:29:26.075Z,30.12
2018-01-08T00:31:52.715Z,28.10
2018-01-08T00:34:19.930Z,27.75
2018-01-08T00:36:47.062Z,26.60
2018-01-08T00:39:14.747Z,28.48
2018-01-08T00:41:41.426Z,29.85
2018-01-08T00:44:08.402Z,25.27
2018-01-08T00:46:41.930Z,27.08
2018-01-08T00:49:08.577Z,27.40
2018-01-08T00:51:36.294Z,26.20
2018-01-08T00:54:03.248Z,29.42
2018-01-08T00:56:29.990Z,27.52
2018-01-08T00:58:56.537Z,25.52
2018-01-08T01:01:23.112Z,26.23
2018-01-08T01:03:49.781Z,27.70
2018-01-08T01:06:17.853Z,27.05
2018-01-08T01:08:45.974Z,26.15
2018-01-08T01:11:14.666Z,27.37
2018-01-08T01:13:49.009Z,27.08
2018-01-08T01:16:16.802Z,24.98
2018-01-08T01:18:45.194Z,26.20
2018-01-08T01:21:11.952Z,25.58
2018-01-08T01:23:38.669Z,26.27
2018-01-08T01:26:05.269Z,25.55
2018-01-08T01:28:32.277Z,25.45
2018-01-08T01:31:06.138Z,26.35
2018-01-08T01:33:33.100Z,23.70
2018-01-08T01:35:59.701Z,25.95
2018-01-08T01:38:26.233Z,24.58
2018-01-08T01:40:52.817Z,26.10
2018-01-08T01:43:19.675Z,24.10
2018-01-08T01:45:46.758Z,25.05
2018-01-08T01:48:14.432Z,25.90
2018-01-08T01:50:41.232Z,24.05
2018-01-08T01:53:08.189Z,26.10
2018-01-08T01:55:35.160Z,26.00
2018-01-08T01:58:01.932Z,24.50
2018-01-08T02:00:28.553Z,27.30
2018-01-08T02:02:55.125Z,25.88
2018-01-08T02:05:22.157Z,25.35
2018-01-08T02:07:49.121Z,25.25
2018-01-08T02:10:16.618Z,25.45
2018-01-08T02:12:45.914Z,23.98
2018-01-08T02:15:12.606Z,23.58
2018-01-08T02:17:39.527Z,25.15
2018-01-08T02:20:06.745Z,27.58
2018-01-08T02:22:33.325Z,24.15
2018-01-08T02:24:59.893Z,23.45
2018-01-08T02:27:26.536Z,23.08
2018-01-08T02:29:53.064Z,24.70
2018-01-08T02:32:19.836Z,23.85
2018-01-08T02:34:48.538Z,23.60
2018-01-08T02:37:16.430Z,24.35
2018-01-08T02:39:45.371Z,21.83
2018-01-08T02:42:12.630Z,23.90
2018-01-08T02:44:39.604Z,24.02
2018-01-08T02:47:06.437Z,23.35
2018-01-08T02:49:33.121Z,26.10
2018-01-08T02:51:59.656Z,23.58
2018-01-08T02:54:26.233Z,23.95
2018-01-08T02:56:52.883Z,23.15
2018-01-08T02:59:19.755Z,20.90
2018-01-08T03:01:48.024Z,21.77
2018-01-08T03:04:16.396Z,21.87
2018-01-08T03:06:43.838Z,21.55
2018-01-08T03:09:10.839Z,22.60
2018-01-08T03:11:38.002Z,22.25
2018-01-08T03:14:05.484Z,23.90
2018-01-08T03:16:32.192Z,21.23
2018-01-08T03:18:58.821Z,20.30
2018-01-08T03:21:25.716Z,21.27
2018-01-08T03:23:52.553Z,19.55
2018-01-08T03:26:19.742Z,20.80
2018-01-08T03:28:47.842Z,21.75
2018-01-08T03:31:16.527Z,21.15
2018-01-08T03:33:43.613Z,20.58
2018-01-08T03:36:10.405Z,21.25
2018-01-08T03:38:37.491Z,18.92
2018-01-08T03:41:04.740Z,19.35
2018-01-08T03:43:31.408Z,21.73
2018-01-08T03:45:57.977Z,21.62
2018-01-08T03:48:24.541Z,22.00
2018-01-08T03:50:51.568Z,20.70
2018-01-08T03:53:19.855Z,20.45
2018-01-08T03:55:48.434Z,21.33
2018-01-08T03:58:15.621Z,20.30
2018-01-08T04:00:42.631Z,19.98
2018-01-08T04:03:09.310Z,20.35
2018-01-08T04:05:38.080Z,20.90
2018-01-08T04:08:04.840Z,19.95
2018-01-08T04:10:31.515Z,20.35
2018-01-08T04:12:58.138Z,22.35
2018-01-08T04:15:24.753Z,19.55
2018-01-08T04:17:52.213Z,20.25
2018-01-08T04:20:19.744Z,18.73
2018-01-08T04:22:47.253Z,21.70
2018-01-08T04:25:15.513Z,19.95
2018-01-08T04:27:43.899Z,20.52
2018-01-08T04:30:11.082Z,21.00
2018-01-08T04:32:38.016Z,19.60
2018-01-08T04:35:04.977Z,19.67
2018-01-08T04:37:31.697Z,17.52
2018-01-08T04:39:58.374Z,18.80
2018-01-08T04:42:25.026Z,19.73
2018-01-08T04:44:52.085Z,19.33
2018-01-08T04:47:19.150Z,19.92
2018-01-08T04:49:46.992Z,18.90
2018-01-08T04:52:16.976Z,19.60
2018-01-08T04:54:44.869Z,18.30
2018-01-08T04:57:11.780Z,17.15
2018-01-08T04:59:39.050Z,19.73
2018-01-08T05:02:05.865Z,18.83
2018-01-08T05:04:32.522Z,20.92
2018-01-08T05:06:59.113Z,17.83
2018-01-08T05:09:25.745Z,18.98
2018-01-08T05:11:52.365Z,18.05
2018-01-08T05:14:20.347Z,18.27
2018-01-08T05:16:48.178Z,18.90
2018-01-08T05:19:15.226Z,18.77
2018-01-08T05:21:42.341Z,18.40
2018-01-08T05:24:09.809Z,19.73
2018-01-08T05:26:37.732Z,18.83
2018-01-08T05:29:04.748Z,18.35
2018-01-08T05:31:31.337Z,19.08
2018-01-08T05:33:57.946Z,18.87
2018-01-08T05:36:24.519Z,18.27
2018-01-08T05:38:52.048Z,17.90
2018-01-08T05:41:19.152Z,18.35
2018-01-08T05:43:46.261Z,20.75
2018-01-08T05:46:14.816Z,18.95
2018-01-08T05:48:41.924Z,18.92
2018-01-08T05:51:08.624Z,17.80
2018-01-08T05:53:35.806Z,19.65
2018-01-08T05:56:02.390Z,18.60
2018-01-08T05:58:28.974Z,18.25
2018-01-08T06:00:55.593Z,17.92
2018-01-08T06:03:22.401Z,21.15
2018-01-08T06:05:50.336Z,21.55
2018-01-08T06:08:17.776Z,19.48
2018-01-08T06:10:46.013Z,20.17
2018-01-08T06:13:12.764Z,17.25
2018-01-08T06:15:39.820Z,17.90
2018-01-08T06:18:07.084Z,18.95
2018-01-08T06:20:34.681Z,18.17
2018-01-08T06:23:01.281Z,18.67
2018-01-08T06:25:28.367Z,18.75
2018-01-08T06:27:54.988Z,19.42
2018-01-08T06:30:21.753Z,19.70
2018-01-08T06:32:48.937Z,19.12
2018-01-08T06:35:16.615Z,18.62
2018-01-08T06:37:44.115Z,18.10
2018-01-08T06:40:10.785Z,19.95
2018-01-08T06:42:37.442Z,19.10
2018-01-08T06:45:04.014Z,19.77
2018-01-08T06:47:31.050Z,18.35
2018-01-08T06:49:57.698Z,19.00
2018-01-08T06:52:24.482Z,17.50
2018-01-08T06:54:51.309Z,16.35
2018-01-08T06:57:18.947Z,19.05
2018-01-08T06:59:46.667Z,17.33
2018-01-08T07:02:14.485Z,17.67
2018-01-08T07:04:41.539Z,16.80
2018-01-08T07:07:08.233Z,16.17
2018-01-08T07:09:35.225Z,17.65
2018-01-08T07:12:01.874Z,17.42
2018-01-08T07:14:28.433Z,18.00
2018-01-08T07:16:55.037Z,17.30
2018-01-08T07:19:21.629Z,18.00
2018-01-08T07:21:48.581Z,19.10
2018-01-08T07:24:15.613Z,16.85
2018-01-08T07:26:42.715Z,18.35
2018-01-08T07:29:09.353Z,17.60
2018-01-08T07:31:36.173Z,19.52
2018-01-08T07:34:02.843Z,18.60
2018-01-08T07:36:29.465Z,18.40
2018-01-08T07:38:55.994Z,15.98
2018-01-08T07:41:22.688Z,17.25
2018-01-08T07:43:49.387Z,17.27
2018-01-08T07:46:16.709Z,17.70
2018-01-08T07:48:44.172Z,15.88
2018-01-08T07:51:10.923Z,15.98
2018-01-08T07:53:38.085Z,16.10
2018-01-08T07:56:04.834Z,15.27
2018-01-08T07:58:31.463Z,16.62
2018-01-08T08:00:58.238Z,15.25
2018-01-08T08:03:24.888Z,17.98
2018-01-08T08:05:51.744Z,16.85
2018-01-08T08:08:19.315Z,18.10
2018-01-08T08:10:47.586Z,17.37
2018-01-08T08:13:15.800Z,17.05
2018-01-08T08:15:42.856Z,16.55
2018-01-08T08:18:10.212Z,17.27
2018-01-08T08:20:37.168Z,17.45
2018-01-08T08:23:03.820Z,15.93
2018-01-08T08:25:30.440Z,17.83
2018-01-08T08:27:57.010Z,17.95
2018-01-08T08:30:23.546Z,17.17
2018-01-08T08:32:50.504Z,15.90
2018-01-08T08:35:17.478Z,15.40
2018-01-08T08:37:45.156Z,15.80
2018-01-08T08:40:11.899Z,16.60
2018-01-08T08:42:38.469Z,15.13
2018-01-08T08:45:05.299Z,16.70
2018-01-08T08:47:31.920Z,15.35
2018-01-08T08:49:58.489Z,14.15
2018-01-08T08:52:25.118Z,14.87
2018-01-08T08:54:51.796Z,13.52
2018-01-08T08:57:18.450Z,14.10
2018-01-08T08:59:45.300Z,14.30
2018-01-08T09:02:12.022Z,13.60
2018-01-08T09:04:38.588Z,15.00
2018-01-08T09:07:05.198Z,16.75
2018-01-08T09:09:31.797Z,14.43
2018-01-08T09:11:58.444Z,16.10
2018-01-08T09:14:25.094Z,15.18
2018-01-08T09:16:51.690Z,14.87
2018-01-08T09:19:19.215Z,14.50
2018-01-08T09:21:45.946Z,14.38
2018-01-08T09:24:12.610Z,14.02
2018-01-08T09:26:39.605Z,14.70
2018-01-08T09:29:06.558Z,13.35
2018-01-08T09:31:33.781Z,13.55
2018-01-08T09:34:00.410Z,13.95
2018-01-08T09:36:27.294Z,14.70
2018-01-08T09:38:53.896Z,15.00
2018-01-08T09:41:20.575Z,13.32
2018-01-08T09:43:47.552Z,13.73
2018-01-08T09:46:15.015Z,13.23
2018-01-08T09:48:41.712Z,11.50
2018-01-08T09:51:08.697Z,12.02
2018-01-08T09:53:35.357Z,11.00
2018-01-08T09:56:01.971Z,12.55
2018-01-08T09:58:28.982Z,11.85
2018-01-08T10:00:55.577Z,11.73
2018-01-08T10:03:34.336Z,11.48
2018-01-08T10:06:13.481Z,12.27
2018-01-08T10:08:52.549Z,12.05
2018-01-08T10:11:31.453Z,12.43
2018-01-08T10:16:42.872Z,10.77
2018-01-08T10:22:10.866Z,10.93
2018-01-08T10:24:38.203Z,11.23
2018-01-08T10:27:05.095Z,9.65
2018-01-08T10:29:32.073Z,9.73
2018-01-08T10:31:58.714Z,10.48
2018-01-08T10:34:25.514Z,9.48
2018-01-08T10:36:52.872Z,10.55
2018-01-08T10:39:20.002Z,10.38
2018-01-08T10:41:52.824Z,10.65
2018-01-08T10:44:25.619Z,9.80
2018-01-08T10:46:58.619Z,9.77
2018-01-08T10:49:31.237Z,10.80
2018-01-08T10:51:57.717Z,9.95
2018-01-08T10:54:27.477Z,11.05
2018-01-08T10:56:54.201Z,10.10
2018-01-08T10:59:20.876Z,9.43
2018-01-08T11:01:53.498Z,10.63
2018-01-08T11:04:20.524Z,9.88
2018-01-08T11:06:47.145Z,9.70
2018-01-08T11:09:15.314Z,10.45
2018-01-08T11:11:41.982Z,8.20
2018-01-08T11:14:09.171Z,9.60
2018-01-08T11:16:35.748Z,8.82
2018-01-08T11:19:02.339Z,8.90
2018-01-08T11:21:29.018Z,8.68
2018-01-08T11:23:56.010Z,10.25
2018-01-08T11:26:22.614Z,9.50
2018-01-08T11:28:49.209Z,9.32
2018-01-08T11:31:16.198Z,8.43
2018-01-08T11:33:43.369Z,9.88
2018-01-08T11:36:10.039Z,9.05
2018-01-08T11:38:36.678Z,9.10
2018-01-08T11:41:03.341Z,8.55
2018-01-08T11:43:30.061Z,8.20
2018-01-08T11:45:57.265Z,8.32
2018-01-08T11:48:24.182Z,8.82
2018-01-08T11:50:50.839Z,9.50
2018-01-08T11:53:17.462Z,9.25
2018-01-08T11:55:44.229Z,9.95
2018-01-08T11:58:10.930Z,8.93
2018-01-08T12:00:37.573Z,8.20
2018-01-08T12:03:04.309Z,9.27
2018-01-08T12:05:30.960Z,9.25
2018-01-08T12:07:57.685Z,8.82
2018-01-08T12:10:24.543Z,8.38
2018-01-08T12:12:51.226Z,8.13
2018-01-08T12:15:17.965Z,8.57
2018-01-08T12:17:44.598Z,8.90
2018-01-08T12:20:11.240Z,8.52
2018-01-08T12:22:37.841Z,8.27
2018-01-08T12:25:04.801Z,7.93
2018-01-08T12:27:31.928Z,8.18
2018-01-08T12:29:58.784Z,7.25
2018-01-08T12:32:25.474Z,7.45
2018-01-08T12:34:52.591Z,8.45
2018-01-08T12:37:19.344Z,8.82
2018-01-08T12:39:45.965Z,9.05
2018-01-08T12:42:12.817Z,7.40
2018-01-08T12:44:39.469Z,8.05
2018-01-08T12:47:06.044Z,7.50
2018-01-08T12:49:32.629Z,7.45
2018-01-08T12:51:59.959Z,8.27
2018-01-08T12:54:26.597Z,9.10
2018-01-08T12:56:53.924Z,8.40
2018-01-08T12:59:20.621Z,8.55
2018-01-08T13:01:47.242Z,7.95
2018-01-08T13:04:14.005Z,8.02
2018-01-08T13:06:40.775Z,8.02
2018-01-08T13:09:07.392Z,7.85
2018-01-08T13:11:34.045Z,9.45
2018-01-08T13:14:00.636Z,9.02
2018-01-08T13:16:27.684Z,8.70
2018-01-08T13:18:54.435Z,8.25
2018-01-08T13:21:21.010Z,8.43
2018-01-08T13:23:47.556Z,9.00
2018-01-08T13:26:14.167Z,8.70
2018-01-08T13:28:40.794Z,7.68
2018-01-08T13:31:07.446Z,8.48
2018-01-08T13:33:34.027Z,7.70
2018-01-08T13:36:00.626Z,8.38
2018-01-08T13:38:27.230Z,9.98
2018-01-08T13:40:54.489Z,14.27
2018-01-08T13:43:21.201Z,15.18
2018-01-08T13:45:47.814Z,8.70
2018-01-08T13:48:14.840Z,8.10
2018-01-08T13:50:41.590Z,7.20
2018-01-08T13:53:08.177Z,8.20
2018-01-08T13:55:35.300Z,9.18
2018-01-08T13:58:02.022Z,8.20
2018-01-08T14:00:28.639Z,7.30
2018-01-08T14:02:56.891Z,8.73
2018-01-08T14:05:23.645Z,8.15
2018-01-08T14:07:50.652Z,8.82
2018-01-08T14:10:17.294Z,9.65
2018-01-08T14:12:44.408Z,9.85
2018-01-08T14:15:11.259Z,8.68
2018-01-08T14:17:37.882Z,9.00
2018-01-08T14:20:04.477Z,9.13
2018-01-08T14:22:31.048Z,8.43
2018-01-08T14:24:58.265Z,8.55
2018-01-08T14:27:25.065Z,7.60
2018-01-08T14:29:52.083Z,9.00
2018-01-08T14:32:19.067Z,8.50
2018-01-08T14:34:46.091Z,8.45
2018-01-08T14:37:12.713Z,8.85
2018-01-08T14:39:39.333Z,8.32
2018-01-08T14:42:06.348Z,9.18
2018-01-08T14:44:32.997Z,10.32
2018-01-08T14:46:59.585Z,11.35
2018-01-08T14:49:26.813Z,8.40
2018-01-08T14:51:53.906Z,8.15
2018-01-08T14:54:20.691Z,8.07
2018-01-08T14:56:47.249Z,8.82
2018-01-08T14:59:13.897Z,8.93
2018-01-08T15:01:40.538Z,9.98
2018-01-08T15:04:07.133Z,10.40
2018-01-08T15:06:33.763Z,9.73
2018-01-08T15:09:00.517Z,8.75
2018-01-08T15:11:27.570Z,9.18
2018-01-08T15:13:54.392Z,9.18
2018-01-08T15:16:21.182Z,9.82
2018-01-08T15:18:47.829Z,9.93
2018-01-08T15:21:14.584Z,10.75
2018-01-08T15:23:41.305Z,10.45
2018-01-08T15:26:08.106Z,10.13
2018-01-08T15:28:34.677Z,11.32
2018-01-08T15:31:01.661Z,11.32
2018-01-08T15:33:28.339Z,10.90
2018-01-08T15:35:55.501Z,10.63
2018-01-08T15:38:23.078Z,11.02
2018-01-08T15:40:49.694Z,11.43
2018-01-08T15:43:16.237Z,11.20
2018-01-08T15:45:42.928Z,10.48
2018-01-08T15:48:09.567Z,9.93
2018-01-08T15:50:36.190Z,11.27
2018-01-08T15:53:02.770Z,10.23
2018-01-08T15:55:29.719Z,8.55
2018-01-08T15:57:56.474Z,13.30
2018-01-08T16:00:23.621Z,9.10
2018-01-08T16:02:50.222Z,10.15
2018-01-08T16:05:17.210Z,8.95
2018-01-08T16:07:43.892Z,8.90
2018-01-08T16:10:10.510Z,8.52
2018-01-08T16:12:37.050Z,8.65
2018-01-08T16:15:03.737Z,10.38
2018-01-08T16:17:30.363Z,8.55
2018-01-08T16:19:57.245Z,8.45
2018-01-08T16:22:24.726Z,8.20
2018-01-08T16:24:51.435Z,7.53
2018-01-08T16:27:18.078Z,7.15
2018-01-08T16:29:44.682Z,8.10
2018-01-08T16:32:11.714Z,7.32
2018-01-08T16:34:38.258Z,7.70
2018-01-08T16:37:04.910Z,7.50
2018-01-08T16:39:31.528Z,7.22
2018-01-08T16:41:58.117Z,7.28
2018-01-08T16:44:25.152Z,6.95
2018-01-08T16:46:51.814Z,7.80
2018-01-08T16:49:18.437Z,7.62
2018-01-08T16:51:45.091Z,7.18
2018-01-08T16:54:11.763Z,7.80
2018-01-08T16:56:38.297Z,8.02
2018-01-08T16:59:04.856Z,7.68
2018-01-08T17:01:31.610Z,7.80
2018-01-08T17:03:58.157Z,7.45
2018-01-08T17:06:24.901Z,8.20
2018-01-08T17:08:51.556Z,8.60
2018-01-08T17:11:18.129Z,9.02
2018-01-08T17:13:44.958Z,8.68
2018-01-08T17:16:11.594Z,7.82
2018-01-08T17:18:38.137Z,8.65
2018-01-08T17:21:04.805Z,8.35
2018-01-08T17:23:31.454Z,8.80
2018-01-08T17:25:58.308Z,8.60
2018-01-08T17:28:25.067Z,9.02
2018-01-08T17:30:51.657Z,8.45
2018-01-08T17:33:18.664Z,9.85
2018-01-08T17:35:45.326Z,8.35
2018-01-08T17:38:12.290Z,8.93
2018-01-08T17:40:38.920Z,8.65
2018-01-08T17:43:05.542Z,8.48
2018-01-08T17:45:32.221Z,9.38
2018-01-08T17:47:58.974Z,8.70
2018-01-08T17:50:26.033Z,9.60
2018-01-08T17:52:53.611Z,9.48
2018-01-08T17:55:20.209Z,10.57
2018-01-08T17:57:46.899Z,9.77
2018-01-08T18:00:13.857Z,9.27
2018-01-08T18:02:40.402Z,10.10
2018-01-08T18:05:07.026Z,9.35
2018-01-08T18:07:33.590Z,9.88
2018-01-08T18:10:00.324Z,11.32
2018-01-08T18:12:27.088Z,9.13
2018-01-08T18:14:53.753Z,10.25
2018-01-08T18:17:20.373Z,10.38
2018-01-08T18:19:47.051Z,10.95
2018-01-08T18:22:13.775Z,10.10
2018-01-08T18:24:40.425Z,10.88
2018-01-08T18:27:07.011Z,10.65
2018-01-08T18:29:33.617Z,10.45
2018-01-08T18:32:00.197Z,9.32
2018-01-08T18:34:27.049Z,9.18
2018-01-08T18:36:53.783Z,9.95
2018-01-08T18:39:20.421Z,11.23
2018-01-08T18:41:47.100Z,10.15
2018-01-08T18:44:15.109Z,9.82
2018-01-08T18:46:41.730Z,10.82
2018-01-08T18:49:08.380Z,9.80
2018-01-08T18:51:34.958Z,9.48
2018-01-08T18:54:04.546Z,10.70
2018-01-08T18:56:31.298Z,11.30
2018-01-08T18:58:58.052Z,10.90
2018-01-08T19:01:25.008Z,10.90
2018-01-08T19:03:52.171Z,10.48
2018-01-08T19:06:19.436Z,10.93
2018-01-08T19:08:46.284Z,10.40
2018-01-08T19:11:13.242Z,9.73
2018-01-08T19:16:15.245Z,10.40
2018-01-08T19:18:43.127Z,10.55
2018-01-08T19:21:10.128Z,10.20
2018-01-08T19:23:37.856Z,10.55
2018-01-08T19:26:04.813Z,9.00
2018-01-08T19:28:31.569Z,10.90
2018-01-08T19:30:58.216Z,10.13
2018-01-08T19:33:24.868Z,9.88
2018-01-08T19:35:51.409Z,10.02
2018-01-08T19:38:17.985Z,9.18
2018-01-08T19:40:44.708Z,10.80
2018-01-08T19:43:11.330Z,10.70
2018-01-08T19:45:37.980Z,10.80
2018-01-08T19:48:04.760Z,10.18
2018-01-08T19:50:31.288Z,11.30
2018-01-08T19:52:58.784Z,9.20
2018-01-08T19:55:25.506Z,10.18
2018-01-08T19:57:52.053Z,9.55
2018-01-08T20:00:18.724Z,10.18
2018-01-08T20:02:45.371Z,10.07
2018-01-08T20:05:12.126Z,10.68
2018-01-08T20:07:38.774Z,10.85
2018-01-08T20:10:05.338Z,8.73
2018-01-08T20:12:31.870Z,9.85
2018-01-08T20:14:58.450Z,10.43
2018-01-08T20:17:25.787Z,10.15
2018-01-08T20:19:53.671Z,10.30
2018-01-08T20:22:20.502Z,10.35
2018-01-08T20:24:47.120Z,10.45
2018-01-08T20:27:13.741Z,11.18
2018-01-08T20:29:40.713Z,9.32
2018-01-08T20:32:07.697Z,9.80
2018-01-08T20:34:34.233Z,10.38
2018-01-08T20:37:00.922Z,10.05
2018-01-08T20:39:27.675Z,9.65
2018-01-08T20:41:54.427Z,10.27
2018-01-08T20:44:21.002Z,9.82
2018-01-08T20:46:47.597Z,10.25
2018-01-08T20:49:14.167Z,10.68
2018-01-08T20:51:40.745Z,9.70
2018-01-08T20:54:09.234Z,10.18
2018-01-08T20:56:35.765Z,9.70
2018-01-08T20:59:02.357Z,9.75
2018-01-08T21:01:29.129Z,9.45
2018-01-08T21:03:55.881Z,8.75
2018-01-08T21:06:22.560Z,9.88
2018-01-08T21:08:49.133Z,9.10
2018-01-08T21:11:16.778Z,9.18
2018-01-08T21:13:43.348Z,10.50
2018-01-08T21:16:09.917Z,9.27
2018-01-08T21:18:36.932Z,9.40
2018-01-08T21:21:03.525Z,9.27
2018-01-08T21:23:30.539Z,9.10
2018-01-08T21:25:57.194Z,9.40
2018-01-08T21:28:23.808Z,8.70
2018-01-08T21:30:50.486Z,8.52
2018-01-08T21:33:17.013Z,9.40
2018-01-08T21:35:43.607Z,9.20
2018-01-08T21:38:10.229Z,8.45
2018-01-08T21:40:36.881Z,8.70
2018-01-08T21:43:03.632Z,9.20
2018-01-08T21:45:30.354Z,9.30
2018-01-08T21:47:57.243Z,8.70
2018-01-08T21:50:24.296Z,8.40
2018-01-08T21:52:50.913Z,9.20
2018-01-08T21:55:17.594Z,9.77
2018-01-08T21:57:44.210Z,9.45
2018-01-08T22:00:10.893Z,10.10
2018-01-08T22:02:37.545Z,9.00
2018-01-08T22:05:04.118Z,8.85
2018-01-08T22:07:30.725Z,9.00
2018-01-08T22:09:57.371Z,10.45
2018-01-08T22:12:24.555Z,9.90
2018-01-08T22:14:51.137Z,9.50
2018-01-08T22:17:18.155Z,9.45
2018-01-08T22:19:44.877Z,8.60
2018-01-08T22:22:11.524Z,9.43
2018-01-08T22:24:38.106Z,8.13
2018-01-08T22:27:04.678Z,10.73
2018-01-08T22:29:31.269Z,9.23
2018-01-08T22:31:57.947Z,9.48
2018-01-08T22:34:25.013Z,8.85
2018-01-08T22:36:51.941Z,8.52
2018-01-08T22:39:18.818Z,9.13
2018-01-08T22:41:45.485Z,8.48
2018-01-08T22:44:12.498Z,8.68
2018-01-08T22:46:39.072Z,8.57
2018-01-08T22:49:05.633Z,8.85
2018-01-08T22:51:32.254Z,8.85
2018-01-08T22:53:59.035Z,8.57
2018-01-08T22:56:26.389Z,8.73
2018-01-08T22:58:53.178Z,9.30
2018-01-08T23:01:20.196Z,8.85
2018-01-08T23:03:47.259Z,8.38
2018-01-08T23:06:13.977Z,8.60
2018-01-08T23:08:40.500Z,8.18
2018-01-08T23:11:07.438Z,9.30
2018-01-08T23:13:34.026Z,9.02
2018-01-08T23:16:00.707Z,8.13
2018-01-08T23:18:27.441Z,9.13
2018-01-08T23:20:54.259Z,8.27
2018-01-08T23:23:20.858Z,8.70
2018-01-08T23:25:48.011Z,9.13
2018-01-08T23:28:14.974Z,7.93
2018-01-08T23:30:41.574Z,8.45
2018-01-08T23:33:08.259Z,8.73
2018-01-08T23:35:35.301Z,8.30
2018-01-08T23:38:01.838Z,7.82
2018-01-08T23:40:28.569Z,8.15
2018-01-08T23:42:55.165Z,8.35
2018-01-08T23:45:21.797Z,7.62
2018-01-08T23:47:48.373Z,8.27
2018-01-08T23:50:15.026Z,9.05
2018-01-08T23:52:41.647Z,8.68
2018-01-08T23:55:09.841Z,7.55
2018-01-08T23:57:37.132Z,7.55
